Time;durP1;ratioP1;P1;durP2;ratioP2;P2;SDS_P1;SDS_P2;PMS_P1;PMS_P2;Temp;Humidity;BMP_temperature;BMP_pressure;BME280_temperature;BME280_humidity;BME280_pressure;Samples;Min_cycle;Max_cycle;Signal;HPM_P1;HPM_P2
2021/07/08 00:01:34;;;;;;;;;;;;;;;24.98;47.00;100935.97;5077789;28;806;-36
2021/07/08 00:03:59;;;;;;;;;;;;;;;25.60;48.06;100933.88;5072170;28;894;-38
2021/07/08 00:06:24;;;;;;;;;;;;;;;25.95;49.02;100931.84;5076630;28;2014;-38
2021/07/08 00:08:50;;;;;;;;;;;;;;;26.49;45.17;100924.16;5075440;28;1248;-38
2021/07/08 00:11:15;;;;;;;;;;;;;;;26.20;47.76;100928.25;5076649;28;1289;-34
2021/07/08 00:13:41;;;;;;;;;;;;;;;24.39;51.68;100934.88;5077614;28;837;-35
2021/07/08 00:16:06;;;;;;;;;;;;;;;25.92;46.57;100929.50;5077502;28;1115;-38
2021/07/08 00:18:31;;;;;;;;;;;;;;;26.07;46.61;100926.97;5076752;28;962;-36
2021/07/08 00:20:57;;;;;;;;;;;;;;;26.56;46.52;100925.13;5077251;28;752;-38
2021/07/08 00:23:22;;;;;;;;;;;;;;;26.61;45.03;100924.63;5077898;28;827;-38
2021/07/08 00:25:48;;;;;;;;;;;;;;;26.23;47.84;100931.47;5077086;28;1902;-38
2021/07/08 00:28:13;;;;;;;;;;;;;;;24.59;50.68;100930.06;5077283;28;1100;-37
2021/07/08 00:30:39;;;;;;;;;;;;;;;25.79;46.76;100930.03;5076962;28;835;-39
2021/07/08 00:33:05;;;;;;;;;;;;;;;26.01;47.02;100933.00;5076260;28;824;-36
2021/07/08 00:35:30;;;;;;;;;;;;;;;26.51;45.77;100927.50;5076884;28;959;-39
2021/07/08 00:37:55;;;;;;;;;;;;;;;26.56;45.09;100932.41;5077364;28;736;-39
2021/07/08 00:40:21;;;;;;;;;;;;;;;26.17;48.22;100941.06;5076669;28;782;-34
2021/07/08 00:42:46;;;;;;;;;;;;;;;24.40;50.34;100929.34;5077257;28;858;-34
2021/07/08 00:45:12;;;;;;;;;;;;;;;25.76;46.89;100938.44;5076644;28;1907;-38
2021/07/08 00:47:37;;;;;;;;;;;;;;;26.07;46.81;100935.03;5076901;28;819;-38
2021/07/08 00:50:03;;;;;;;;;;;;;;;26.52;45.09;100937.31;5076241;28;954;-34
2021/07/08 00:52:29;;;;;;;;;;;;;;;26.58;45.49;100938.44;5077172;28;823;-35
2021/07/08 00:54:54;;;;;;;;;;;;;;;26.35;47.50;100936.50;5076490;28;1186;-34
2021/07/08 00:57:19;;;;;;;;;;;;;;;24.57;49.36;100938.31;5076886;28;709;-36
2021/07/08 00:59:46;;;;;;;;;;;;;;;25.84;46.82;100941.13;5076482;28;488;-38
2021/07/08 01:02:14;;;;;;;;;;;;;;;26.00;47.50;100950.22;5077032;28;795;-33
2021/07/08 01:04:41;;;;;;;;;;;;;;;26.53;44.54;100945.22;5076089;28;1978;-34
2021/07/08 01:07:06;;;;;;;;;;;;;;;26.50;44.96;100942.88;5076593;28;779;-37
2021/07/08 01:09:31;;;;;;;;;;;;;;;26.45;47.22;100945.25;5058528;28;847;-36
2021/07/08 01:11:57;;;;;;;;;;;;;;;24.58;48.41;100947.22;5076219;28;776;-38
2021/07/08 01:14:22;;;;;;;;;;;;;;;25.83;46.29;100952.06;5076611;28;827;-38
2021/07/08 01:16:47;;;;;;;;;;;;;;;25.90;47.51;100951.25;5076466;28;771;-38
2021/07/08 01:19:12;;;;;;;;;;;;;;;26.43;45.39;100943.72;5075875;28;970;-36
2021/07/08 01:21:38;;;;;;;;;;;;;;;26.48;45.06;100950.28;5076493;28;838;-37
2021/07/08 01:24:04;;;;;;;;;;;;;;;26.60;46.30;100950.75;5076419;28;791;-38
2021/07/08 01:26:29;;;;;;;;;;;;;;;24.65;47.40;100933.97;5058150;28;1906;-33
2021/07/08 01:28:54;;;;;;;;;;;;;;;25.67;46.88;100949.22;5076287;28;791;-37
2021/07/08 01:31:20;;;;;;;;;;;;;;;25.91;47.69;100950.22;5076555;28;815;-35
2021/07/08 01:33:45;;;;;;;;;;;;;;;26.52;44.66;100948.09;5076039;28;982;-38
2021/07/08 01:36:11;;;;;;;;;;;;;;;26.41;45.47;100947.44;5076019;28;787;-37
2021/07/08 01:38:36;;;;;;;;;;;;;;;26.65;45.56;100945.69;5076413;28;867;-39
2021/07/08 01:41:01;;;;;;;;;;;;;;;24.98;46.19;100949.41;5076263;28;811;-38
2021/07/08 01:43:27;;;;;;;;;;;;;;;25.67;46.69;100954.59;5076034;28;867;-37
2021/07/08 01:45:52;;;;;;;;;;;;;;;25.92;47.83;100956.47;5076160;28;1910;-38
2021/07/08 01:48:17;;;;;;;;;;;;;;;26.51;44.08;100954.50;5075633;28;1025;-38
2021/07/08 01:50:42;;;;;;;;;;;;;;;26.39;45.69;100959.44;5075981;28;780;-37
2021/07/08 01:53:08;;;;;;;;;;;;;;;24.98;48.54;100957.47;5076324;28;858;-38
2021/07/08 01:55:33;;;;;;;;;;;;;;;26.15;44.99;100971.91;5075899;28;1029;-38
2021/07/08 01:58:01;;;;;;;;;;;;;;;26.25;44.99;100959.09;5076063;28;811;-34
2021/07/08 02:00:26;;;;;;;;;;;;;;;26.37;46.78;100950.69;5076223;28;763;-38
2021/07/08 02:02:52;;;;;;;;;;;;;;;24.62;47.01;100956.66;5075431;28;763;-37
2021/07/08 02:05:17;;;;;;;;;;;;;;;25.63;46.44;100961.34;5075836;28;1965;-38
2021/07/08 02:07:42;;;;;;;;;;;;;;;25.98;47.36;100969.25;5075700;28;859;-38
2021/07/08 02:10:08;;;;;;;;;;;;;;;26.47;44.57;100966.66;5075520;28;834;-36
2021/07/08 02:12:34;;;;;;;;;;;;;;;26.37;45.04;100973.09;5076441;28;804;-38
2021/07/08 02:14:59;;;;;;;;;;;;;;;26.68;45.13;100970.63;5075655;28;828;-38
2021/07/08 02:17:24;;;;;;;;;;;;;;;24.80;46.42;100971.88;5075375;28;767;-37
2021/07/08 02:19:50;;;;;;;;;;;;;;;25.64;46.27;100970.28;5075749;28;911;-38
2021/07/08 02:22:15;;;;;;;;;;;;;;;25.89;47.50;100973.78;5078615;28;764;-34
2021/07/08 02:24:40;;;;;;;;;;;;;;;26.42;44.89;100972.56;5079221;28;1901;-36
2021/07/08 02:27:06;;;;;;;;;;;;;;;26.37;45.22;100975.81;5079462;28;790;-34
2021/07/08 02:29:31;;;;;;;;;;;;;;;26.76;43.87;100955.25;5079475;28;783;-37
2021/07/08 02:31:56;;;;;;;;;;;;;;;25.03;45.74;100961.38;5079230;28;823;-38
2021/07/08 02:34:21;;;;;;;;;;;;;;;25.35;47.32;100958.94;5079445;28;1005;-36
2021/07/08 02:36:47;;;;;;;;;;;;;;;26.01;47.06;100963.50;5079337;28;780;-35
2021/07/08 02:39:12;;;;;;;;;;;;;;;26.38;44.79;100965.84;5079255;28;887;-38
2021/07/08 02:41:37;;;;;;;;;;;;;;;26.26;46.35;100971.56;5079359;28;763;-38
2021/07/08 02:44:03;;;;;;;;;;;;;;;26.79;43.71;100962.16;5079332;28;768;-34
2021/07/08 02:46:28;;;;;;;;;;;;;;;25.46;44.91;100962.31;5078629;28;1902;-37
2021/07/08 02:48:53;;;;;;;;;;;;;;;25.44;47.08;100959.78;5078865;28;1001;-36
2021/07/08 02:51:19;;;;;;;;;;;;;;;26.11;46.70;100968.72;5079570;28;994;-34
2021/07/08 02:53:44;;;;;;;;;;;;;;;26.43;44.61;100960.75;5078659;28;799;-38
2021/07/08 02:56:11;;;;;;;;;;;;;;;26.13;46.70;100965.84;5078788;28;1051;-38
2021/07/08 02:58:36;;;;;;;;;;;;;;;26.78;43.69;100966.72;5078780;28;756;-38
2021/07/08 03:01:03;;;;;;;;;;;;;;;25.71;43.85;100965.06;5078857;28;842;-38
2021/07/08 03:03:29;;;;;;;;;;;;;;;25.16;49.07;100966.28;5078944;28;966;-35
2021/07/08 03:05:54;;;;;;;;;;;;;;;25.98;46.46;100974.63;5078789;28;1979;-36
2021/07/08 03:08:19;;;;;;;;;;;;;;;26.26;46.96;100968.88;5078664;28;860;-31
2021/07/08 03:10:44;;;;;;;;;;;;;;;26.28;48.63;100972.25;5079110;28;817;-39
2021/07/08 03:13:10;;;;;;;;;;;;;;;26.74;46.90;100975.34;5078438;28;879;-37
2021/07/08 03:15:35;;;;;;;;;;;;;;;26.83;48.04;100985.06;5079238;28;755;-37
2021/07/08 03:18:00;;;;;;;;;;;;;;;26.98;48.16;100979.78;5078451;28;744;-39
2021/07/08 03:20:28;;;;;;;;;;;;;;;26.91;47.52;100973.38;5077663;28;911;-40
2021/07/08 03:22:54;;;;;;;;;;;;;;;26.95;48.23;100979.28;5078820;28;783;-38
2021/07/08 03:25:20;;;;;;;;;;;;;;;27.17;48.34;100983.09;5077874;28;1970;-37
2021/07/08 03:27:46;;;;;;;;;;;;;;;27.07;47.78;100982.47;5078647;28;728;-40
2021/07/08 03:30:14;;;;;;;;;;;;;;;26.28;49.28;100983.03;5078580;28;853;-38
2021/07/08 03:32:40;;;;;;;;;;;;;;;26.78;49.41;100982.91;5078163;28;721;-38
2021/07/08 03:35:05;;;;;;;;;;;;;;;26.86;48.03;100984.72;5078159;28;959;-38
2021/07/08 03:37:31;;;;;;;;;;;;;;;26.94;47.05;100981.16;5079055;28;784;-35
2021/07/08 03:39:56;;;;;;;;;;;;;;;25.66;49.16;100985.25;5077949;28;835;-36
2021/07/08 03:42:21;;;;;;;;;;;;;;;26.59;49.05;100986.00;5078691;28;740;-35
2021/07/08 03:44:46;;;;;;;;;;;;;;;26.83;47.80;100987.78;5078293;28;1911;-37
2021/07/08 03:47:12;;;;;;;;;;;;;;;26.88;47.37;100987.25;5077761;28;748;-37
2021/07/08 03:49:37;;;;;;;;;;;;;;;26.88;47.49;100995.34;5077252;28;1222;-31
2021/07/08 03:52:02;;;;;;;;;;;;;;;25.68;48.48;100998.56;5052862;28;2629;-37
2021/07/08 03:54:28;;;;;;;;;;;;;;;26.31;49.08;100997.19;5047096;28;2506;-35
2021/07/08 03:56:53;;;;;;;;;;;;;;;26.32;51.46;100998.84;5075646;28;1433;-37
2021/07/08 03:59:18;;;;;;;;;;;;;;;26.73;47.71;100996.06;5077695;28;807;-42
2021/07/08 04:01:44;;;;;;;;;;;;;;;26.45;45.68;101007.28;5077178;28;1540;-44
2021/07/08 04:04:09;;;;;;;;;;;;;;;25.22;51.50;101007.03;5077253;28;1017;-43
2021/07/08 04:06:34;;;;;;;;;;;;;;;26.22;48.89;101013.38;5077928;28;1971;-42
2021/07/08 04:08:59;;;;;;;;;;;;;;;26.31;49.13;101021.47;5077237;28;842;-41
2021/07/08 04:11:25;;;;;;;;;;;;;;;26.53;49.39;101018.06;5077638;28;901;-38
2021/07/08 04:13:50;;;;;;;;;;;;;;;24.51;51.28;101016.09;5077827;28;901;-39
2021/07/08 04:16:15;;;;;;;;;;;;;;;25.76;48.68;101008.47;5077161;28;735;-36
2021/07/08 04:18:41;;;;;;;;;;;;;;;25.88;50.16;101014.38;5077033;28;918;-36
2021/07/08 04:21:06;;;;;;;;;;;;;;;26.51;47.23;101020.09;5077462;28;767;-39
2021/07/08 04:23:31;;;;;;;;;;;;;;;25.27;47.61;101019.00;5076733;28;811;-38
2021/07/08 04:25:56;;;;;;;;;;;;;;;24.49;52.86;101018.94;5077572;28;1952;-38
2021/07/08 04:28:22;;;;;;;;;;;;;;;25.89;47.61;101033.09;5077265;28;763;-39
2021/07/08 04:30:47;;;;;;;;;;;;;;;26.26;45.33;101033.59;5076187;28;1088;-37
2021/07/08 04:33:12;;;;;;;;;;;;;;;24.02;53.76;101026.31;5077433;28;834;-38
2021/07/08 04:35:40;;;;;;;;;;;;;;;25.73;47.36;101030.38;5076602;28;927;-38
2021/07/08 04:38:09;;;;;;;;;;;;;;;26.28;47.02;101038.81;5076905;28;907;-35
2021/07/08 04:40:35;;;;;;;;;;;;;;;24.16;52.59;101033.00;5076851;28;826;-37
2021/07/08 04:43:00;;;;;;;;;;;;;;;25.79;47.11;101035.13;5077328;28;732;-38
2021/07/08 04:45:25;;;;;;;;;;;;;;;26.20;48.28;101039.66;5076130;28;1905;-37
2021/07/08 04:47:50;;;;;;;;;;;;;;;24.07;51.40;101032.06;5077018;28;822;-38
2021/07/08 04:50:19;;;;;;;;;;;;;;;25.50;47.83;101034.53;5076077;28;958;-39
2021/07/08 04:52:45;;;;;;;;;;;;;;;25.94;50.19;101035.31;5076423;28;886;-39
2021/07/08 04:55:10;;;;;;;;;;;;;;;26.57;46.29;101033.91;5076782;28;1081;-39
2021/07/08 04:57:36;;;;;;;;;;;;;;;24.90;48.46;101039.91;5076787;28;771;-44
2021/07/08 05:00:03;;;;;;;;;;;;;;;24.68;51.59;101030.47;5076026;28;862;-43
2021/07/08 05:02:28;;;;;;;;;;;;;;;26.35;46.64;101039.00;5076808;28;779;-37
2021/07/08 05:04:53;;;;;;;;;;;;;;;24.70;48.51;101033.88;5076211;28;1902;-36
2021/07/08 05:07:19;;;;;;;;;;;;;;;25.13;49.87;101031.22;5076416;28;731;-36
2021/07/08 05:09:44;;;;;;;;;;;;;;;26.29;47.05;101035.13;5076081;28;894;-39
2021/07/08 05:12:09;;;;;;;;;;;;;;;24.12;49.46;101039.69;5077025;28;801;-40
2021/07/08 05:14:35;;;;;;;;;;;;;;;25.06;49.45;101032.88;5076361;28;747;-40
2021/07/08 05:17:01;;;;;;;;;;;;;;;26.12;47.64;101042.38;5076449;28;755;-40
2021/07/08 05:19:26;;;;;;;;;;;;;;;24.02;50.04;101039.75;5076258;28;959;-41
2021/07/08 05:21:52;;;;;;;;;;;;;;;25.30;48.95;101048.28;5076304;28;896;-41
2021/07/08 05:24:20;;;;;;;;;;;;;;;26.11;48.67;101052.31;5058911;28;818;-41
2021/07/08 05:26:46;;;;;;;;;;;;;;;23.90;49.89;101049.03;5076600;28;1902;-41
2021/07/08 05:29:11;;;;;;;;;;;;;;;25.77;47.20;101056.00;5075945;28;772;-40
2021/07/08 05:31:36;;;;;;;;;;;;;;;26.46;45.13;101052.13;5076204;28;854;-39
2021/07/08 05:34:01;;;;;;;;;;;;;;;26.82;44.24;101058.97;5076123;28;1100;-41
2021/07/08 05:36:27;;;;;;;;;;;;;;;27.02;44.06;101055.91;5076010;28;858;-39
2021/07/08 05:38:52;;;;;;;;;;;;;;;27.25;43.27;101060.50;5076348;28;756;-40
2021/07/08 05:41:17;;;;;;;;;;;;;;;27.39;43.17;101056.22;5076083;28;1026;-39
2021/07/08 05:43:42;;;;;;;;;;;;;;;27.58;42.90;101062.19;5076281;28;810;-40
2021/07/08 05:46:08;;;;;;;;;;;;;;;27.53;42.97;101059.19;5076304;28;1960;-39
2021/07/08 05:48:33;;;;;;;;;;;;;;;27.60;43.00;101065.56;5075827;28;1010;-39
2021/07/08 05:50:58;;;;;;;;;;;;;;;27.69;42.49;101061.81;5076178;28;862;-38
2021/07/08 05:53:24;;;;;;;;;;;;;;;27.85;42.50;101062.72;5075765;28;810;-39
2021/07/08 05:55:50;;;;;;;;;;;;;;;27.88;42.55;101067.75;5076320;28;1105;-40
2021/07/08 05:58:15;;;;;;;;;;;;;;;27.84;42.34;101069.97;5079939;28;1111;-38
2021/07/08 06:00:40;;;;;;;;;;;;;;;27.83;42.66;101064.75;5080148;28;763;-41
2021/07/08 06:03:06;;;;;;;;;;;;;;;27.96;42.33;101064.97;5080478;28;779;-39
2021/07/08 06:05:31;;;;;;;;;;;;;;;28.09;41.85;101063.53;5079329;28;1918;-41
2021/07/08 06:07:56;;;;;;;;;;;;;;;28.07;42.31;101063.72;5079918;28;826;-39
2021/07/08 06:10:21;;;;;;;;;;;;;;;28.15;42.14;101062.81;5079659;28;851;-40
2021/07/08 06:12:47;;;;;;;;;;;;;;;28.21;41.98;101074.78;5079661;28;831;-39
2021/07/08 06:15:12;;;;;;;;;;;;;;;28.27;41.80;101068.63;5079645;28;795;-42
2021/07/08 06:17:38;;;;;;;;;;;;;;;28.30;41.93;101070.97;5080112;28;727;-40
2021/07/08 06:20:03;;;;;;;;;;;;;;;28.32;41.77;101070.78;5078601;28;958;-42
2021/07/08 06:22:29;;;;;;;;;;;;;;;28.34;41.96;101071.47;5079467;28;802;-40
2021/07/08 06:24:54;;;;;;;;;;;;;;;28.44;41.50;101068.50;5079887;28;1901;-42
2021/07/08 06:27:19;;;;;;;;;;;;;;;28.43;41.38;101069.50;5079650;28;823;-42
2021/07/08 06:29:45;;;;;;;;;;;;;;;28.44;41.46;101061.22;5079704;28;763;-39
2021/07/08 06:32:11;;;;;;;;;;;;;;;28.54;41.27;101069.09;5079365;28;796;-41
2021/07/08 06:34:36;;;;;;;;;;;;;;;28.50;41.51;101061.50;5079024;28;951;-40
2021/07/08 06:37:01;;;;;;;;;;;;;;;28.55;41.41;101067.19;5079321;28;763;-41
2021/07/08 06:39:27;;;;;;;;;;;;;;;28.50;41.75;101070.47;5079530;28;794;-42
2021/07/08 06:41:52;;;;;;;;;;;;;;;28.51;41.73;101066.72;5079218;28;763;-42
2021/07/08 06:44:17;;;;;;;;;;;;;;;28.66;41.32;101063.22;5078666;28;838;-40
2021/07/08 06:46:49;;;;;;;;;;;;;;;28.57;41.83;101063.28;5079675;28;1957;-42
2021/07/08 06:49:14;;;;;;;;;;;;;;;28.59;41.56;101058.50;5078483;28;963;-40
2021/07/08 06:51:40;;;;;;;;;;;;;;;28.60;41.45;101062.06;5078878;28;980;-42
2021/07/08 06:54:06;;;;;;;;;;;;;;;28.63;41.55;101053.56;5079271;28;843;-42
2021/07/08 06:56:31;;;;;;;;;;;;;;;28.76;41.23;101054.81;5079126;28;1067;-41
2021/07/08 06:58:57;;;;;;;;;;;;;;;28.71;41.42;101053.47;5078508;28;792;-42
2021/07/08 07:01:22;;;;;;;;;;;;;;;28.79;41.16;101057.13;5078862;28;751;-42
2021/07/08 07:03:47;;;;;;;;;;;;;;;28.73;41.48;101054.16;5078645;28;986;-41
2021/07/08 07:06:12;;;;;;;;;;;;;;;28.75;41.47;101051.25;5078381;28;1909;-42
2021/07/08 07:08:38;;;;;;;;;;;;;;;28.81;41.26;101060.50;5078451;28;795;-42
2021/07/08 07:11:03;;;;;;;;;;;;;;;28.89;41.08;101067.69;5078732;28;776;-42
2021/07/08 07:13:29;;;;;;;;;;;;;;;28.99;40.92;101057.44;5078621;28;773;-42
2021/07/08 07:15:54;;;;;;;;;;;;;;;28.92;40.98;101062.72;5078778;28;879;-39
2021/07/08 07:18:19;;;;;;;;;;;;;;;28.90;41.07;101062.06;5078627;28;900;-41
2021/07/08 07:20:45;;;;;;;;;;;;;;;28.83;41.20;101051.16;5058371;28;879;-41
2021/07/08 07:23:10;;;;;;;;;;;;;;;29.00;41.11;101053.69;5057945;28;845;-42
2021/07/08 07:25:40;;;;;;;;;;;;;;;28.91;41.09;101060.22;5058364;28;1894;-39
2021/07/08 07:28:05;;;;;;;;;;;;;;;28.90;40.99;101061.22;5058151;28;1264;-41
2021/07/08 07:30:31;;;;;;;;;;;;;;;28.93;41.12;101060.84;5058557;28;748;-39
2021/07/08 07:32:56;;;;;;;;;;;;;;;28.99;41.18;101062.00;5058516;28;807;-40
2021/07/08 07:35:21;;;;;;;;;;;;;;;29.01;40.87;101068.91;5075122;28;963;-42
2021/07/08 07:37:47;;;;;;;;;;;;;;;29.05;41.01;101066.66;5078438;28;818;-42
2021/07/08 07:40:12;;;;;;;;;;;;;;;29.11;40.70;101075.91;5078750;28;787;-42
2021/07/08 07:42:38;;;;;;;;;;;;;;;29.02;40.84;101073.31;5077744;28;780;-42
2021/07/08 07:45:07;;;;;;;;;;;;;;;29.06;40.75;101074.59;5078328;28;1901;-41
2021/07/08 07:47:32;;;;;;;;;;;;;;;29.08;40.88;101071.69;5078696;28;696;-41
2021/07/08 07:49:58;;;;;;;;;;;;;;;29.05;40.95;101074.78;5077327;28;1423;-40
2021/07/08 07:52:24;;;;;;;;;;;;;;;29.22;40.47;101083.56;5077798;28;787;-42
2021/07/08 07:54:49;;;;;;;;;;;;;;;29.13;40.81;101090.94;5077780;28;1217;-40
2021/07/08 07:57:14;;;;;;;;;;;;;;;29.17;40.74;101086.00;5077828;28;742;-42
2021/07/08 07:59:39;;;;;;;;;;;;;;;29.16;40.74;101089.72;5077813;28;893;-40
2021/07/08 08:02:09;;;;;;;;;;;;;;;29.19;40.54;101090.19;5077880;28;775;-40
2021/07/08 08:04:41;;;;;;;;;;;;;;;29.31;40.43;101092.44;5076672;28;1909;-40
2021/07/08 08:09:50;;;;;;;;;;;;;;;29.32;40.49;101092.22;5077576;28;625;-42
2021/07/08 08:12:15;;;;;;;;;;;;;;;29.09;39.76;101098.59;5077285;28;850;-40
2021/07/08 08:14:40;;;;;;;;;;;;;;;29.09;39.40;101089.66;5077611;28;759;-40
2021/07/08 08:17:06;;;;;;;;;;;;;;;28.86;38.59;101085.16;5076492;28;1099;-39
2021/07/08 08:19:31;;;;;;;;;;;;;;;28.93;39.37;101083.34;5075792;28;923;-41
2021/07/08 08:21:56;;;;;;;;;;;;;;;28.99;39.80;101094.50;5077590;28;770;-41
2021/07/08 08:24:21;;;;;;;;;;;;;;;28.91;40.33;101095.41;5077269;28;826;-42
2021/07/08 08:26:51;;;;;;;;;;;;;;;28.86;40.36;101093.28;5077158;28;2060;-38
2021/07/08 08:29:17;;;;;;;;;;;;;;;28.96;39.78;101096.53;5077331;28;809;-37
2021/07/08 08:31:42;;;;;;;;;;;;;;;28.95;39.94;101096.72;5077201;28;890;-42
2021/07/08 08:34:08;;;;;;;;;;;;;;;28.99;40.42;101100.78;5076457;28;955;-40
2021/07/08 08:36:33;;;;;;;;;;;;;;;28.76;39.85;101103.53;5077094;28;858;-39
2021/07/08 08:38:58;;;;;;;;;;;;;;;28.64;40.07;101109.41;5077070;28;809;-40
2021/07/08 08:41:23;;;;;;;;;;;;;;;28.63;40.61;101109.59;5076542;28;758;-39
2021/07/08 08:43:49;;;;;;;;;;;;;;;28.80;40.43;101110.25;5077337;28;834;-40
2021/07/08 08:46:14;;;;;;;;;;;;;;;28.85;40.46;101107.81;5076875;28;1909;-38
2021/07/08 08:48:39;;;;;;;;;;;;;;;28.87;39.97;101111.19;5076471;28;951;-40
2021/07/08 08:51:06;;;;;;;;;;;;;;;28.79;40.31;101109.44;5076650;28;759;-39
2021/07/08 08:53:31;;;;;;;;;;;;;;;28.84;40.54;101104.25;5076368;28;801;-41
2021/07/08 08:55:57;;;;;;;;;;;;;;;28.84;40.27;101112.38;5076850;28;1674;-37
2021/07/08 08:58:22;;;;;;;;;;;;;;;28.75;40.14;101118.94;5076328;28;837;-39
2021/07/08 09:00:57;;;;;;;;;;;;;;;28.75;40.47;101121.63;5076504;28;847;-40
2021/07/08 09:03:25;;;;;;;;;;;;;;;28.77;40.89;101122.28;5076486;28;1089;-40
2021/07/08 09:05:57;;;;;;;;;;;;;;;28.68;40.66;101120.69;5075750;28;1973;-39
2021/07/08 09:08:22;;;;;;;;;;;;;;;28.75;40.43;101134.31;5076438;28;1091;-41
2021/07/08 09:10:47;;;;;;;;;;;;;;;28.62;41.23;101135.81;5076684;28;766;-43
2021/07/08 09:13:13;;;;;;;;;;;;;;;28.65;41.15;101127.31;5075607;28;831;-39
2021/07/08 09:15:38;;;;;;;;;;;;;;;28.65;41.00;101124.63;5076714;28;838;-38
2021/07/08 09:18:03;;;;;;;;;;;;;;;28.84;41.18;101133.22;5076145;28;783;-38
2021/07/08 09:20:29;;;;;;;;;;;;;;;29.00;40.75;101134.94;5075305;28;958;-41
2021/07/08 09:23:11;;;;;;;;;;;;;;;29.08;40.75;101137.56;5076306;28;843;-41
2021/07/08 09:25:36;;;;;;;;;;;;;;;29.11;40.61;101143.63;5076296;28;1965;-42
2021/07/08 09:28:13;;;;;;;;;;;;;;;29.16;40.70;101144.72;5075968;28;850;-39
2021/07/08 09:30:39;;;;;;;;;;;;;;;29.01;40.34;101136.59;5076082;28;802;-41
2021/07/08 09:33:23;;;;;;;;;;;;;;;29.05;39.78;101128.94;5076144;28;795;-39
2021/07/08 09:35:48;;;;;;;;;;;;;;;29.11;39.45;101119.25;5058451;28;1227;-41
2021/07/08 09:38:22;;;;;;;;;;;;;;;29.08;39.67;101126.72;5076425;28;803;-40
2021/07/08 09:40:47;;;;;;;;;;;;;;;29.03;39.84;101118.31;5075885;28;787;-40
2021/07/08 09:43:21;;;;;;;;;;;;;;;29.06;39.37;101115.22;5058363;28;1271;-42
2021/07/08 09:45:47;;;;;;;;;;;;;;;29.04;39.37;101121.88;5057883;28;1975;-37
2021/07/08 09:48:18;;;;;;;;;;;;;;;28.97;39.86;101121.78;5075676;28;759;-40
2021/07/08 09:50:43;;;;;;;;;;;;;;;28.97;39.36;101121.78;5076009;28;882;-39
2021/07/08 09:53:15;;;;;;;;;;;;;;;29.00;39.33;101128.66;5076311;28;835;-42
2021/07/08 09:56:06;;;;;;;;;;;;;;;28.82;39.09;101105.50;5075538;28;1136;-39
2021/07/08 09:58:32;;;;;;;;;;;;;;;28.91;39.33;101128.72;5076194;28;778;-43
2021/07/08 10:00:59;;;;;;;;;;;;;;;28.95;39.42;101137.34;5075898;28;1045;-39
2021/07/08 10:03:25;;;;;;;;;;;;;;;28.90;39.57;101142.47;5057426;28;955;-39
2021/07/08 10:05:50;;;;;;;;;;;;;;;28.80;39.73;101140.88;5057531;28;1973;-39
2021/07/08 10:08:16;;;;;;;;;;;;;;;28.81;39.46;101137.13;5075897;28;736;-39
2021/07/08 10:10:41;;;;;;;;;;;;;;;28.82;39.94;101133.41;5075180;28;826;-43
2021/07/08 10:13:07;;;;;;;;;;;;;;;28.79;39.75;101139.22;5075930;28;831;-42
2021/07/08 10:15:34;;;;;;;;;;;;;;;28.83;39.14;101142.34;5075965;28;765;-40
2021/07/08 10:17:59;;;;;;;;;;;;;;;28.84;39.45;101135.94;5057295;28;1051;-38
2021/07/08 10:20:25;;;;;;;;;;;;;;;28.88;39.35;101136.41;5075521;28;931;-39
2021/07/08 10:22:50;;;;;;;;;;;;;;;28.92;39.04;101127.72;5057293;28;821;-38
2021/07/08 10:25:16;;;;;;;;;;;;;;;28.96;38.83;101120.06;5075577;28;1902;-40
2021/07/08 10:27:42;;;;;;;;;;;;;;;28.98;38.83;101114.50;5075825;28;809;-41
2021/07/08 10:30:07;;;;;;;;;;;;;;;28.72;39.57;101114.75;5057838;28;871;-40
2021/07/08 10:32:32;;;;;;;;;;;;;;;28.83;38.76;101115.28;5057651;28;791;-42
2021/07/08 10:34:58;;;;;;;;;;;;;;;28.70;39.30;101119.50;5075322;28;959;-41
2021/07/08 10:37:26;;;;;;;;;;;;;;;28.89;39.19;101124.53;5074995;28;999;-43
2021/07/08 10:39:52;;;;;;;;;;;;;;;28.94;39.40;101125.69;5075315;28;907;-42
2021/07/08 10:42:36;;;;;;;;;;;;;;;28.91;39.09;101126.03;5076895;28;975;-42
2021/07/08 10:45:01;;;;;;;;;;;;;;;28.87;39.06;101122.03;5078845;28;1953;-42
2021/07/08 10:47:33;;;;;;;;;;;;;;;28.79;39.55;101120.25;5079297;28;859;-41
2021/07/08 10:49:59;;;;;;;;;;;;;;;28.77;39.05;101118.75;5078699;28;903;-43
2021/07/08 10:52:43;;;;;;;;;;;;;;;28.78;38.90;101117.72;5061399;28;831;-42
2021/07/08 10:55:09;;;;;;;;;;;;;;;28.81;39.15;101123.59;5078289;28;1259;-42
2021/07/08 10:57:36;;;;;;;;;;;;;;;28.84;39.14;101125.09;5079197;28;799;-41
2021/07/08 11:00:01;;;;;;;;;;;;;;;28.81;38.82;101123.59;5079209;28;827;-42
2021/07/08 11:02:46;;;;;;;;;;;;;;;28.73;38.58;101116.41;5078542;28;756;-42
2021/07/08 11:05:12;;;;;;;;;;;;;;;28.72;38.71;101120.16;5077887;28;1977;-42
2021/07/08 11:07:43;;;;;;;;;;;;;;;28.80;38.59;101121.91;5078649;28;866;-42
2021/07/08 11:10:09;;;;;;;;;;;;;;;28.68;38.28;101118.81;5078697;28;816;-41
2021/07/08 11:12:35;;;;;;;;;;;;;;;28.69;38.72;101127.78;5078663;28;1061;-36
2021/07/08 11:15:00;;;;;;;;;;;;;;;28.67;38.76;101124.44;5078655;28;853;-42
2021/07/08 11:17:26;;;;;;;;;;;;;;;28.62;38.52;101121.44;5078569;28;783;-42
2021/07/08 11:19:52;;;;;;;;;;;;;;;28.61;38.42;101126.03;5078347;28;1012;-43
2021/07/08 11:22:27;;;;;;;;;;;;;;;28.65;38.73;101131.88;5078856;28;835;-40
2021/07/08 11:24:53;;;;;;;;;;;;;;;28.55;38.84;101126.72;5078186;28;1901;-43
2021/07/08 11:27:32;;;;;;;;;;;;;;;28.50;39.21;101145.38;5077869;28;800;-39
2021/07/08 11:29:59;;;;;;;;;;;;;;;28.48;39.04;101127.47;5078581;28;779;-40
2021/07/08 11:32:31;;;;;;;;;;;;;;;28.62;38.98;101129.53;5077972;28;838;-40
2021/07/08 11:35:00;;;;;;;;;;;;;;;28.58;38.51;101129.91;5077995;28;1025;-43
2021/07/08 11:37:29;;;;;;;;;;;;;;;28.54;38.63;101125.06;5078360;28;779;-41
2021/07/08 11:39:56;;;;;;;;;;;;;;;28.57;38.71;101124.69;5077705;28;819;-42
2021/07/08 11:42:22;;;;;;;;;;;;;;;28.71;38.89;101120.34;5078400;28;849;-42
2021/07/08 11:44:48;;;;;;;;;;;;;;;28.70;38.75;101130.31;5078328;28;1906;-40
2021/07/08 11:47:13;;;;;;;;;;;;;;;28.75;38.82;101134.31;5077483;28;1070;-39
2021/07/08 11:49:38;;;;;;;;;;;;;;;28.84;38.53;101130.53;5077711;28;947;-42
2021/07/08 11:52:16;;;;;;;;;;;;;;;28.82;38.97;101132.56;5078496;28;819;-42
2021/07/08 11:54:57;;;;;;;;;;;;;;;28.78;39.24;101121.25;5076764;28;1282;-42
2021/07/08 11:57:23;;;;;;;;;;;;;;;28.80;39.32;101127.34;5078187;28;750;-41
2021/07/08 11:59:48;;;;;;;;;;;;;;;28.91;39.54;101125.19;5077409;28;1472;-42
2021/07/08 12:02:33;;;;;;;;;;;;;;;28.91;39.51;101126.03;5077008;28;883;-42
2021/07/08 12:05:14;;;;;;;;;;;;;;;28.75;37.58;101129.75;5077123;28;1906;-42
2021/07/08 12:07:40;;;;;;;;;;;;;;;28.80;37.85;101127.34;5077717;28;758;-41
2021/07/08 12:10:06;;;;;;;;;;;;;;;28.58;38.15;101123.66;5077466;28;786;-42
2021/07/08 12:12:32;;;;;;;;;;;;;;;28.36;38.20;101127.06;5077453;28;990;-42
2021/07/08 12:14:58;;;;;;;;;;;;;;;28.34;37.97;101118.28;5059380;28;800;-42
2021/07/08 12:17:26;;;;;;;;;;;;;;;28.24;37.88;101121.22;5076849;28;835;-42
2021/07/08 12:19:59;;;;;;;;;;;;;;;28.23;37.82;101126.81;5076773;28;943;-41
2021/07/08 12:22:24;;;;;;;;;;;;;;;28.31;38.15;101128.63;5059339;28;1472;-42
2021/07/08 12:24:49;;;;;;;;;;;;;;;28.57;38.05;101125.53;5077117;28;1973;-41
2021/07/08 12:27:14;;;;;;;;;;;;;;;28.64;38.15;101120.25;5077167;28;870;-42
2021/07/08 12:29:43;;;;;;;;;;;;;;;28.32;38.08;101117.63;5077624;28;822;-39
2021/07/08 12:32:09;;;;;;;;;;;;;;;28.07;38.42;101119.66;5076851;28;739;-40
2021/07/08 12:34:45;;;;;;;;;;;;;;;28.03;38.25;101116.47;5076811;28;970;-39
2021/07/08 12:37:11;;;;;;;;;;;;;;;27.98;38.55;101114.31;5076949;28;915;-42
2021/07/08 12:39:36;;;;;;;;;;;;;;;28.02;38.20;101119.38;5076749;28;860;-41
2021/07/08 12:42:01;;;;;;;;;;;;;;;28.18;38.55;101118.38;5077121;28;738;-42
2021/07/08 12:44:27;;;;;;;;;;;;;;;28.33;38.49;101119.31;5076792;28;843;-41
2021/07/08 12:46:52;;;;;;;;;;;;;;;28.07;38.13;101117.81;5076796;28;1906;-42
2021/07/08 12:49:18;;;;;;;;;;;;;;;28.04;37.62;101120.88;5076737;28;962;-40
2021/07/08 12:51:43;;;;;;;;;;;;;;;28.09;37.43;101121.16;5059088;28;1175;-40
2021/07/08 12:54:08;;;;;;;;;;;;;;;28.07;37.54;101116.97;5076637;28;715;-42